Time;durP1;ratioP1;P1;durP2;ratioP2;P2;SDS_P1;SDS_P2;PMS_P1;PMS_P2;Temp;Humidity;BMP_temperature;BMP_pressure;BME280_temperature;BME280_humidity;BME280_pressure;Samples;Min_cycle;Max_cycle;Signal;HPM_P1;HPM_P2
2021/02/03 00:00:14;;;;;;;1.08;0.98;;;;;;;19.02;48.87;99262.69;;;;-48
2021/02/03 00:03:14;;;;;;;1.08;1.01;;;;;;;19.00;48.83;99250.77;;;;-55
2021/02/03 00:06:14;;;;;;;1.03;0.91;;;;;;;18.98;48.83;99257.36;;;;-47
2021/02/03 00:09:14;;;;;;;1.23;1.13;;;;;;;18.96;48.84;99250.48;;;;-47
2021/02/03 00:12:14;;;;;;;1.11;1.02;;;;;;;18.95;48.84;99242.97;;;;-51
2021/02/03 00:15:14;;;;;;;1.05;1.05;;;;;;;18.93;48.83;99250.53;;;;-51
2021/02/03 00:18:14;;;;;;;0.95;0.95;;;;;;;18.91;48.86;99256.16;;;;-51
2021/02/03 00:21:14;;;;;;;0.99;0.99;;;;;;;18.89;48.89;99255.84;;;;-51
2021/02/03 00:24:14;;;;;;;1.15;0.99;;;;;;;18.88;48.89;99256.34;;;;-47
2021/02/03 00:27:14;;;;;;;1.47;1.01;;;;;;;18.86;48.87;99251.41;;;;-51
2021/02/03 00:30:14;;;;;;;1.37;1.10;;;;;;;18.84;48.88;99242.90;;;;-48
2021/02/03 00:33:14;;;;;;;1.03;0.93;;;;;;;18.82;48.87;99243.19;;;;-50
2021/02/03 00:36:14;;;;;;;1.44;1.10;;;;;;;18.81;48.90;99239.30;;;;-48
2021/02/03 00:39:14;;;;;;;1.13;1.04;;;;;;;18.80;48.89;99243.03;;;;-47
2021/02/03 00:42:14;;;;;;;0.99;0.99;;;;;;;18.77;48.90;99239.05;;;;-56
2021/02/03 00:45:14;;;;;;;1.19;1.09;;;;;;;18.75;48.94;99252.06;;;;-51
2021/02/03 00:48:14;;;;;;;1.64;1.10;;;;;;;18.74;48.94;99251.50;;;;-51
2021/02/03 00:51:14;;;;;;;1.01;1.00;;;;;;;18.72;48.96;99250.39;;;;-48
2021/02/03 00:54:14;;;;;;;1.21;1.11;;;;;;;18.70;49.02;99256.02;;;;-56
2021/02/03 00:57:14;;;;;;;1.01;1.00;;;;;;;18.68;48.98;99257.17;;;;-55
2021/02/03 01:00:14;;;;;;;1.00;1.00;;;;;;;18.67;48.98;99261.30;;;;-48
2021/02/03 01:03:14;;;;;;;1.22;1.11;;;;;;;18.66;49.00;99263.94;;;;-47
2021/02/03 01:06:14;;;;;;;1.21;1.10;;;;;;;18.64;49.00;99259.33;;;;-47
2021/02/03 01:09:14;;;;;;;1.10;1.01;;;;;;;18.63;48.99;99255.59;;;;-48
2021/02/03 01:12:14;;;;;;;0.93;0.93;;;;;;;18.61;49.02;99251.63;;;;-51
2021/02/03 01:15:14;;;;;;;0.91;0.91;;;;;;;18.59;49.00;99246.95;;;;-51
2021/02/03 01:18:14;;;;;;;0.95;0.95;;;;;;;18.58;49.03;99243.88;;;;-51
2021/02/03 01:21:14;;;;;;;1.07;0.93;;;;;;;18.57;49.03;99237.63;;;;-51
2021/02/03 01:24:14;;;;;;;0.95;0.90;;;;;;;18.55;49.03;99242.53;;;;-51
2021/02/03 01:27:14;;;;;;;0.91;0.91;;;;;;;18.55;49.03;99242.77;;;;-51
2021/02/03 01:30:14;;;;;;;0.90;0.90;;;;;;;18.53;49.05;99243.34;;;;-48
2021/02/03 01:33:14;;;;;;;0.87;0.87;;;;;;;18.52;49.10;99242.48;;;;-56
2021/02/03 01:36:14;;;;;;;0.96;0.96;;;;;;;18.50;49.10;99233.73;;;;-50
2021/02/03 01:39:14;;;;;;;1.10;1.00;;;;;;;18.49;49.06;99238.70;;;;-51
2021/02/03 01:42:14;;;;;;;0.91;0.91;;;;;;;18.48;49.10;99239.19;;;;-50
2021/02/03 01:45:14;;;;;;;0.97;0.97;;;;;;;18.46;49.08;99235.46;;;;-51
2021/02/03 01:48:14;;;;;;;0.87;0.87;;;;;;;18.45;49.06;99227.61;;;;-52
2021/02/03 01:51:14;;;;;;;0.81;0.81;;;;;;;18.44;49.09;99213.09;;;;-51
2021/02/03 01:54:14;;;;;;;1.05;1.01;;;;;;;18.42;49.09;99208.81;;;;-50
2021/02/03 01:57:14;;;;;;;1.23;1.01;;;;;;;18.41;49.08;99208.27;;;;-55
2021/02/03 02:00:15;;;;;;;1.06;0.99;;;;;;;18.41;49.09;99208.91;;;;-54
2021/02/03 02:03:14;;;;;;;0.93;0.92;;;;;;;18.38;49.13;99213.30;;;;-50
2021/02/03 02:06:14;;;;;;;1.06;1.00;;;;;;;18.38;49.14;99212.58;;;;-56
2021/02/03 02:09:14;;;;;;;0.99;0.96;;;;;;;18.36;49.12;99209.92;;;;-51
2021/02/03 02:12:14;;;;;;;1.05;1.00;;;;;;;18.35;49.16;99210.84;;;;-51
2021/02/03 02:15:14;;;;;;;0.78;0.78;;;;;;;18.34;49.15;99207.11;;;;-47
2021/02/03 02:18:14;;;;;;;0.89;0.89;;;;;;;18.34;49.14;99208.07;;;;-51
2021/02/03 02:21:14;;;;;;;0.90;0.90;;;;;;;18.32;49.10;99197.66;;;;-51
2021/02/03 02:24:14;;;;;;;0.83;0.83;;;;;;;18.31;49.18;99191.58;;;;-52
2021/02/03 02:28:14;;;;;;;0.90;0.90;;;;;;;18.28;49.15;99182.20;;;;-51
2021/02/03 02:31:14;;;;;;;1.08;0.97;;;;;;;18.28;49.17;99187.47;;;;-57
2021/02/03 02:36:14;;;;;;;1.21;0.91;;;;;;;18.26;49.21;99196.55;;;;-51
2021/02/03 02:39:14;;;;;;;1.20;1.10;;;;;;;18.24;49.20;99198.70;;;;-47
2021/02/03 02:42:14;;;;;;;0.99;0.97;;;;;;;18.24;49.23;99199.67;;;;-55
2021/02/03 02:45:14;;;;;;;1.19;1.03;;;;;;;18.23;49.18;99206.88;;;;-51
2021/02/03 02:48:14;;;;;;;0.99;0.96;;;;;;;18.22;49.25;99202.18;;;;-48
2021/02/03 02:53:14;;;;;;;0.90;0.90;;;;;;;18.20;49.26;99212.90;;;;-56
2021/02/03 02:56:14;;;;;;;0.82;0.82;;;;;;;18.18;49.29;99211.88;;;;-51
2021/02/03 02:59:14;;;;;;;0.92;0.92;;;;;;;18.18;49.27;99212.05;;;;-51
2021/02/03 03:02:14;;;;;;;1.00;1.00;;;;;;;18.17;49.28;99202.14;;;;-51
2021/02/03 03:05:14;;;;;;;0.83;0.83;;;;;;;18.16;49.29;99187.73;;;;-57
2021/02/03 03:08:14;;;;;;;0.83;0.83;;;;;;;18.16;49.29;99185.04;;;;-51
2021/02/03 03:11:14;;;;;;;0.97;0.97;;;;;;;18.14;49.24;99182.08;;;;-55
2021/02/03 03:14:14;;;;;;;0.85;0.85;;;;;;;18.14;49.31;99187.19;;;;-54
2021/02/03 03:17:14;;;;;;;0.90;0.90;;;;;;;18.13;49.29;99185.88;;;;-48
2021/02/03 03:21:14;;;;;;;0.70;0.70;;;;;;;18.12;49.30;99182.34;;;;-55
2021/02/03 03:24:14;;;;;;;0.85;0.85;;;;;;;18.11;49.26;99182.34;;;;-51
2021/02/03 03:27:14;;;;;;;0.80;0.80;;;;;;;18.10;49.30;99185.36;;;;-51
2021/02/03 03:30:14;;;;;;;0.95;0.95;;;;;;;18.09;49.28;99183.33;;;;-47
2021/02/03 03:33:14;;;;;;;0.90;0.87;;;;;;;18.09;49.28;99179.03;;;;-51
2021/02/03 03:36:14;;;;;;;0.90;0.90;;;;;;;18.07;49.28;99173.77;;;;-48
2021/02/03 03:39:14;;;;;;;0.98;0.92;;;;;;;18.06;49.28;99172.16;;;;-51
2021/02/03 03:42:14;;;;;;;0.83;0.83;;;;;;;18.05;49.29;99173.47;;;;-48
2021/02/03 03:45:14;;;;;;;0.88;0.88;;;;;;;18.05;49.33;99173.86;;;;-51
2021/02/03 03:48:14;;;;;;;0.80;0.80;;;;;;;18.04;49.31;99172.43;;;;-51
2021/02/03 03:51:14;;;;;;;1.11;0.94;;;;;;;18.03;49.30;99170.27;;;;-51
2021/02/03 03:54:14;;;;;;;0.88;0.88;;;;;;;18.02;49.28;99168.48;;;;-51
2021/02/03 03:57:14;;;;;;;0.84;0.84;;;;;;;18.01;49.32;99171.95;;;;-47
2021/02/03 04:00:14;;;;;;;0.81;0.81;;;;;;;18.00;49.34;99168.97;;;;-48
2021/02/03 04:03:14;;;;;;;0.93;0.93;;;;;;;18.00;49.32;99182.27;;;;-47
2021/02/03 04:06:14;;;;;;;0.80;0.80;;;;;;;17.98;49.35;99177.91;;;;-55
2021/02/03 04:09:15;;;;;;;1.17;0.83;;;;;;;17.98;49.34;99170.05;;;;-47
2021/02/03 04:12:14;;;;;;;0.78;0.78;;;;;;;17.97;49.32;99161.53;;;;-51
2021/02/03 04:15:14;;;;;;;0.90;0.90;;;;;;;17.97;49.35;99157.64;;;;-51
2021/02/03 04:18:14;;;;;;;1.01;1.01;;;;;;;17.96;49.39;99148.18;;;;-51
2021/02/03 04:21:14;;;;;;;0.86;0.86;;;;;;;17.95;49.41;99154.98;;;;-54
2021/02/03 04:24:14;;;;;;;0.81;0.81;;;;;;;17.93;49.38;99151.54;;;;-47
2021/02/03 04:27:14;;;;;;;0.82;0.82;;;;;;;17.92;49.40;99149.59;;;;-55
2021/02/03 04:31:14;;;;;;;0.90;0.90;;;;;;;17.91;49.40;99144.34;;;;-48
2021/02/03 04:34:14;;;;;;;0.80;0.80;;;;;;;17.92;49.39;99145.22;;;;-48
2021/02/03 04:38:14;;;;;;;0.80;0.80;;;;;;;17.90;49.42;99141.90;;;;-48
2021/02/03 04:41:14;;;;;;;0.87;0.87;;;;;;;17.89;49.41;99133.17;;;;-48
2021/02/03 04:47:14;;;;;;;0.97;0.97;;;;;;;17.88;49.43;99119.96;;;;-48
2021/02/03 04:51:14;;;;;;;0.83;0.83;;;;;;;17.88;49.43;99112.50;;;;-51
2021/02/03 04:54:14;;;;;;;0.80;0.80;;;;;;;17.86;49.41;99116.08;;;;-51
2021/02/03 04:58:14;;;;;;;0.90;0.90;;;;;;;17.85;49.38;99102.17;;;;-51
2021/02/03 05:03:14;;;;;;;0.74;0.74;;;;;;;17.84;49.47;99100.63;;;;-54
2021/02/03 05:07:14;;;;;;;0.85;0.85;;;;;;;17.84;49.41;99088.72;;;;-51
2021/02/03 05:10:14;;;;;;;0.80;0.80;;;;;;;17.82;49.43;99088.94;;;;-51
2021/02/03 05:14:14;;;;;;;1.06;0.91;;;;;;;17.82;49.46;99086.52;;;;-55
2021/02/03 05:20:14;;;;;;;0.92;0.92;;;;;;;17.81;49.42;99074.72;;;;-48
2021/02/03 05:24:14;;;;;;;0.90;0.90;;;;;;;17.79;49.44;99073.52;;;;-48
2021/02/03 05:29:14;;;;;;;0.99;0.99;;;;;;;17.78;49.49;99062.23;;;;-48
2021/02/03 05:35:14;;;;;;;0.73;0.73;;;;;;;17.77;49.47;99068.34;;;;-47
2021/02/03 05:40:14;;;;;;;0.81;0.81;;;;;;;17.75;49.45;99068.75;;;;-51
2021/02/03 05:44:14;;;;;;;0.77;0.77;;;;;;;17.74;49.52;99063.59;;;;-48
2021/02/03 05:48:14;;;;;;;0.81;0.78;;;;;;;17.73;49.50;99067.64;;;;-48
2021/02/03 05:52:14;;;;;;;0.81;0.81;;;;;;;17.73;49.47;99068.12;;;;-54
2021/02/03 05:57:14;;;;;;;0.89;0.89;;;;;;;17.72;49.50;99047.78;;;;-51
2021/02/03 06:00:14;;;;;;;1.01;0.97;;;;;;;17.72;49.49;99042.13;;;;-51
2021/02/03 06:09:40;;;;;;;7.53;1.21;;;;;;;17.70;49.89;99033.63;;;;-53
2021/02/03 06:14:40;;;;;;;1.07;1.00;;;;;;;17.68;49.74;99027.59;;;;-53
2021/02/03 06:19:40;;;;;;;1.09;1.00;;;;;;;17.68;49.68;99021.44;;;;-51
2021/02/03 06:23:40;;;;;;;4.23;1.21;;;;;;;17.67;49.66;99016.73;;;;-51
2021/02/03 06:27:40;;;;;;;1.24;1.00;;;;;;;17.68;49.61;99024.03;;;;-51
2021/02/03 06:32:40;;;;;;;1.72;0.94;;;;;;;17.69;49.60;99016.63;;;;-51
2021/02/03 06:37:40;;;;;;;0.99;0.95;;;;;;;17.71;49.57;99019.63;;;;-51
2021/02/03 06:42:40;;;;;;;1.09;1.03;;;;;;;17.72;49.56;99015.95;;;;-51
2021/02/03 06:47:39;;;;;;;1.73;0.97;;;;;;;17.75;49.53;99011.56;;;;-50
2021/02/03 06:57:05;;;;;;;0.89;0.89;;;;;;;17.80;49.50;99008.66;;;;-50
2021/02/03 07:02:05;;;;;;;1.03;1.02;;;;;;;17.84;49.45;99005.81;;;;-51
2021/02/03 07:08:05;;;;;;;3.19;1.82;;;;;;;17.75;52.56;98997.39;;;;-51
2021/02/03 07:12:05;;;;;;;2.39;2.10;;;;;;;17.67;53.91;98978.09;;;;-52
2021/02/03 07:16:05;;;;;;;4.60;2.35;;;;;;;17.67;54.08;98974.37;;;;-54
2021/02/03 07:25:31;;;;;;;3.90;2.20;;;;;;;17.84;52.11;98976.56;;;;-53
2021/02/03 07:30:31;;;;;;;2.83;2.09;;;;;;;17.89;51.58;98962.11;;;;-54
2021/02/03 07:33:32;;;;;;;5.16;2.18;;;;;;;17.91;51.40;98971.79;;;;-53
2021/02/03 07:37:31;;;;;;;2.45;1.99;;;;;;;17.94;51.40;98970.64;;;;-54
2021/02/03 07:40:31;;;;;;;2.51;2.01;;;;;;;17.95;51.19;98974.20;;;;-54
2021/02/03 07:43:31;;;;;;;2.99;2.03;;;;;;;17.97;51.12;98971.56;;;;-53
2021/02/03 07:47:31;;;;;;;2.25;2.00;;;;;;;17.98;50.93;98964.58;;;;-55
2021/02/03 07:51:31;;;;;;;2.47;1.87;;;;;;;18.00;50.81;98966.77;;;;-55
2021/02/03 07:54:31;;;;;;;4.47;1.93;;;;;;;18.01;50.92;98964.06;;;;-53
2021/02/03 07:58:31;;;;;;;3.72;1.89;;;;;;;18.01;50.90;98958.48;;;;-54
2021/02/03 08:01:31;;;;;;;2.58;1.89;;;;;;;18.02;50.68;98960.41;;;;-54
2021/02/03 08:05:31;;;;;;;2.03;1.82;;;;;;;18.02;50.74;98938.77;;;;-54
2021/02/03 08:09:31;;;;;;;2.57;1.77;;;;;;;18.03;50.61;98946.78;;;;-54
2021/02/03 08:12:31;;;;;;;2.44;1.89;;;;;;;18.04;50.64;98949.05;;;;-54
2021/02/03 08:15:31;;;;;;;2.59;1.78;;;;;;;18.03;50.48;98945.07;;;;-54
2021/02/03 08:18:31;;;;;;;2.03;1.76;;;;;;;18.03;50.39;98937.29;;;;-54
2021/02/03 08:21:31;;;;;;;2.25;1.73;;;;;;;18.03;50.48;98928.88;;;;-53
2021/02/03 08:24:31;;;;;;;2.07;1.70;;;;;;;18.03;50.40;98921.08;;;;-56
2021/02/03 08:29:31;;;;;;;4.23;2.01;;;;;;;18.06;51.17;98917.56;;;;-58
2021/02/03 08:32:31;;;;;;;3.19;1.98;;;;;;;18.09;51.14;98920.11;;;;-50
2021/02/03 08:36:31;;;;;;;2.42;1.80;;;;;;;18.13;51.68;98917.31;;;;-45
2021/02/03 08:42:31;;;;;;;2.34;1.81;;;;;;;18.20;51.45;98926.87;;;;-52
2021/02/03 08:46:31;;;;;;;4.92;1.65;;;;;;;18.27;51.61;98911.30;;;;-52
2021/02/03 08:49:31;;;;;;;2.32;1.63;;;;;;;18.33;51.28;98915.44;;;;-53
2021/02/03 08:52:31;;;;;;;2.08;1.83;;;;;;;18.37;51.38;98909.45;;;;-51
2021/02/03 08:55:31;;;;;;;2.41;1.53;;;;;;;18.42;51.06;98897.21;;;;-52
2021/02/03 08:58:31;;;;;;;1.75;1.59;;;;;;;18.48;51.62;98889.50;;;;-52
2021/02/03 09:02:31;;;;;;;3.41;1.70;;;;;;;18.54;51.34;98875.95;;;;-54
2021/02/03 09:05:31;;;;;;;3.08;1.81;;;;;;;18.55;50.63;98873.52;;;;-57
2021/02/03 09:08:31;;;;;;;2.76;1.73;;;;;;;18.57;50.60;98867.30;;;;-57
2021/02/03 09:13:31;;;;;;;4.05;1.80;;;;;;;18.57;51.14;98859.28;;;;-52
2021/02/03 09:16:31;;;;;;;7.29;2.09;;;;;;;18.57;51.49;98865.04;;;;-51
2021/02/03 09:19:31;;;;;;;5.35;2.09;;;;;;;18.56;51.62;98860.59;;;;-51
2021/02/03 09:22:31;;;;;;;2.91;1.87;;;;;;;18.57;51.96;98843.61;;;;-50
2021/02/03 09:25:31;;;;;;;5.23;2.01;;;;;;;18.60;51.68;98843.18;;;;-52
2021/02/03 09:28:31;;;;;;;3.57;1.93;;;;;;;18.62;51.22;98839.23;;;;-52
2021/02/03 09:31:31;;;;;;;4.07;1.80;;;;;;;18.68;51.68;98840.13;;;;-58
2021/02/03 09:34:31;;;;;;;5.21;1.85;;;;;;;18.70;51.29;98836.53;;;;-58
2021/02/03 09:37:31;;;;;;;5.59;1.95;;;;;;;18.73;51.43;98821.52;;;;-50
2021/02/03 09:40:31;;;;;;;3.71;1.93;;;;;;;18.76;51.83;98805.33;;;;-54
2021/02/03 09:43:31;;;;;;;5.81;1.91;;;;;;;18.80;51.66;98797.50;;;;-59
2021/02/03 09:46:31;;;;;;;3.23;1.78;;;;;;;18.85;52.02;98803.19;;;;-53
2021/02/03 09:49:31;;;;;;;5.51;1.81;;;;;;;18.87;51.95;98798.36;;;;-52
2021/02/03 09:53:31;;;;;;;3.80;1.75;;;;;;;18.93;52.01;98794.09;;;;-55
2021/02/03 09:56:31;;;;;;;2.31;1.61;;;;;;;18.96;51.97;98788.04;;;;-58
2021/02/03 09:59:31;;;;;;;2.99;1.89;;;;;;;18.98;51.78;98785.33;;;;-52
2021/02/03 10:02:31;;;;;;;2.75;1.53;;;;;;;19.02;51.42;98779.73;;;;-56
2021/02/03 10:05:31;;;;;;;2.65;1.79;;;;;;;19.05;51.31;98773.11;;;;-59
2021/02/03 10:08:31;;;;;;;3.49;1.71;;;;;;;19.08;51.32;98770.77;;;;-59
2021/02/03 10:11:32;;;;;;;3.45;1.80;;;;;;;19.12;51.54;98772.98;;;;-47
2021/02/03 10:14:31;;;;;;;3.34;1.74;;;;;;;19.15;51.28;98767.05;;;;-46
2021/02/03 10:18:31;;;;;;;2.63;1.63;;;;;;;19.20;51.27;98769.17;;;;-49
2021/02/03 10:21:31;;;;;;;3.68;1.70;;;;;;;19.23;51.46;98762.84;;;;-50
2021/02/03 10:24:31;;;;;;;3.78;1.78;;;;;;;19.25;51.43;98763.52;;;;-50
2021/02/03 10:28:31;;;;;;;2.51;1.58;;;;;;;19.28;51.43;98759.90;;;;-53
2021/02/03 10:31:31;;;;;;;2.99;1.70;;;;;;;19.30;51.58;98755.48;;;;-53
2021/02/03 10:34:31;;;;;;;1.84;1.58;;;;;;;19.34;51.46;98751.91;;;;-58
2021/02/03 10:37:31;;;;;;;3.03;1.55;;;;;;;19.36;51.26;98740.98;;;;-48
2021/02/03 10:40:31;;;;;;;2.59;1.52;;;;;;;19.38;51.32;98737.12;;;;-47
2021/02/03 10:43:31;;;;;;;2.21;1.60;;;;;;;19.38;51.42;98742.23;;;;-51
2021/02/03 10:46:31;;;;;;;1.71;1.49;;;;;;;19.40;51.49;98738.28;;;;-48
2021/02/03 10:49:31;;;;;;;2.37;1.72;;;;;;;19.43;51.39;98732.55;;;;-50
2021/02/03 10:52:31;;;;;;;3.63;1.70;;;;;;;19.45;51.58;98726.52;;;;-51
2021/02/03 10:55:31;;;;;;;2.98;1.57;;;;;;;19.46;51.79;98722.56;;;;-58
2021/02/03 10:58:31;;;;;;;2.17;1.60;;;;;;;19.47;51.55;98724.43;;;;-51
2021/02/03 11:01:31;;;;;;;2.17;1.60;;;;;;;19.47;51.44;98722.16;;;;-53
2021/02/03 11:04:31;;;;;;;1.79;1.40;;;;;;;19.48;51.28;98713.34;;;;-56
2021/02/03 11:08:31;;;;;;;2.99;1.58;;;;;;;19.48;51.52;98728.44;;;;-59
2021/02/03 11:12:31;;;;;;;4.47;1.67;;;;;;;19.51;50.91;98723.45;;;;-51
2021/02/03 11:17:31;;;;;;;2.19;1.53;;;;;;;19.48;50.58;98716.20;;;;-51
2021/02/03 11:20:31;;;;;;;2.07;1.46;;;;;;;19.47;50.39;98714.03;;;;-51
2021/02/03 11:23:31;;;;;;;1.60;1.49;;;;;;;19.46;50.32;98706.47;;;;-52
2021/02/03 11:26:31;;;;;;;1.56;1.45;;;;;;;19.45;50.12;98700.09;;;;-51
2021/02/03 11:29:31;;;;;;;1.65;1.45;;;;;;;19.45;50.11;98700.92;;;;-51
2021/02/03 11:32:31;;;;;;;3.99;1.60;;;;;;;19.44;49.92;98702.95;;;;-51
2021/02/03 11:35:31;;;;;;;3.85;1.58;;;;;;;19.44;50.06;98696.23;;;;-51
2021/02/03 11:38:31;;;;;;;2.62;1.43;;;;;;;19.44;49.73;98703.38;;;;-51
2021/02/03 11:47:57;;;;;;;2.09;1.58;;;;;;;19.47;49.76;98722.80;;;;-51
2021/02/03 11:50:57;;;;;;;2.32;1.49;;;;;;;19.47;49.76;98726.69;;;;-51
2021/02/03 11:53:57;;;;;;;1.79;1.49;;;;;;;19.47;49.57;98734.48;;;;-51
2021/02/03 11:56:57;;;;;;;2.09;1.42;;;;;;;19.48;49.71;98740.06;;;;-51
2021/02/03 11:59:57;;;;;;;1.52;1.42;;;;;;;19.49;49.61;98747.88;;;;-51
2021/02/03 12:03:57;;;;;;;1.58;1.40;;;;;;;19.49;49.62;98753.45;;;;-52
2021/02/03 12:06:57;;;;;;;1.97;1.43;;;;;;;19.51;49.54;98755.04;;;;-52
2021/02/03 12:10:57;;;;;;;2.20;1.41;;;;;;;19.50;49.51;98756.52;;;;-54
2021/02/03 12:13:57;;;;;;;2.17;1.50;;;;;;;19.51;49.45;98756.35;;;;-51
2021/02/03 12:17:57;;;;;;;1.56;1.40;;;;;;;19.51;49.44;98767.47;;;;-51
2021/02/03 12:21:57;;;;;;;1.43;1.30;;;;;;;19.52;49.33;98769.50;;;;-53
2021/02/03 12:25:57;;;;;;;1.70;1.40;;;;;;;19.53;49.25;98784.67;;;;-48
2021/02/03 12:30:57;;;;;;;2.06;1.47;;;;;;;19.55;49.42;98799.56;;;;-48
2021/02/03 12:34:57;;;;;;;1.84;1.21;;;;;;;19.55;49.25;98796.47;;;;-49
2021/02/03 12:37:57;;;;;;;1.66;1.35;;;;;;;19.56;49.19;98808.39;;;;-51
2021/02/03 12:41:57;;;;;;;2.15;1.37;;;;;;;19.58;49.29;98806.80;;;;-54
2021/02/03 12:47:57;;;;;;;2.62;1.32;;;;;;;19.59;49.25;98806.23;;;;-48
2021/02/03 12:51:57;;;;;;;3.12;1.41;;;;;;;19.64;49.78;98808.80;;;;-55
2021/02/03 12:54:57;;;;;;;2.79;1.56;;;;;;;19.67;50.21;98814.03;;;;-50
2021/02/03 12:57:57;;;;;;;2.23;1.55;;;;;;;19.68;50.25;98813.02;;;;-46
2021/02/03 13:02:57;;;;;;;1.47;1.35;;;;;;;19.71;50.12;98811.54;;;;-49
2021/02/03 13:06:57;;;;;;;1.29;1.20;;;;;;;19.74;50.29;98798.97;;;;-61
2021/02/03 13:09:57;;;;;;;1.37;1.27;;;;;;;19.75;50.10;98778.30;;;;-51
2021/02/03 13:13:57;;;;;;;1.54;1.42;;;;;;;19.75;50.24;98779.41;;;;-52
2021/02/03 13:16:57;;;;;;;2.02;1.41;;;;;;;19.76;50.08;98764.47;;;;-51
2021/02/03 13:19:57;;;;;;;2.59;1.37;;;;;;;19.76;50.21;98765.10;;;;-48
2021/02/03 13:22:57;;;;;;;1.40;1.30;;;;;;;19.77;50.10;98745.74;;;;-58
2021/02/03 13:25:57;;;;;;;1.40;1.30;;;;;;;19.78;50.03;98753.94;;;;-57
2021/02/03 13:28:57;;;;;;;2.69;1.40;;;;;;;19.78;49.99;98757.67;;;;-53
2021/02/03 13:31:57;;;;;;;1.89;1.40;;;;;;;19.77;49.94;98737.44;;;;-52
2021/02/03 13:34:57;;;;;;;1.41;1.31;;;;;;;19.77;50.05;98720.44;;;;-58
2021/02/03 13:37:57;;;;;;;1.63;1.37;;;;;;;19.78;50.10;98689.56;;;;-51
2021/02/03 13:40:57;;;;;;;1.78;1.22;;;;;;;19.78;50.11;98696.37;;;;-55
2021/02/03 13:43:57;;;;;;;1.42;1.32;;;;;;;19.80;50.22;98697.25;;;;-56
2021/02/03 13:46:57;;;;;;;1.89;1.40;;;;;;;19.81;49.83;98692.47;;;;-54
2021/02/03 13:49:57;;;;;;;2.00;1.49;;;;;;;19.81;50.31;98702.71;;;;-49
2021/02/03 13:52:57;;;;;;;2.43;1.37;;;;;;;19.81;50.06;98719.78;;;;-57
2021/02/03 13:55:57;;;;;;;3.02;1.26;;;;;;;19.81;49.92;98731.59;;;;-49
2021/02/03 13:58:57;;;;;;;1.31;1.20;;;;;;;19.83;50.21;98754.70;;;;-50
2021/02/03 14:01:57;;;;;;;1.30;1.20;;;;;;;19.84;50.44;98744.19;;;;-51
2021/02/03 14:05:57;;;;;;;2.29;1.12;;;;;;;19.87;50.34;98744.84;;;;-51
2021/02/03 14:08:57;;;;;;;1.45;1.30;;;;;;;19.85;50.09;98778.86;;;;-56
2021/02/03 14:12:57;;;;;;;3.42;1.45;;;;;;;19.85;50.53;98785.13;;;;-58
2021/02/03 14:16:57;;;;;;;11.23;1.52;;;;;;;19.83;50.53;98812.66;;;;-60
2021/02/03 14:19:57;;;;;;;4.49;1.46;;;;;;;19.85;50.91;98803.11;;;;-52
2021/02/03 14:22:57;;;;;;;2.97;1.40;;;;;;;19.89;50.81;98791.41;;;;-52
2021/02/03 14:25:57;;;;;;;3.90;1.40;;;;;;;19.92;50.40;98769.46;;;;-53
2021/02/03 14:28:59;;;;;;;4.90;1.52;;;;;;;19.92;50.34;98746.77;;;;-57
2021/02/03 14:31:57;;;;;;;4.51;1.53;;;;;;;19.96;50.50;98756.18;;;;-47
2021/02/03 14:35:57;;;;;;;5.66;1.49;;;;;;;20.00;50.50;98772.77;;;;-58
2021/02/03 14:39:57;;;;;;;4.37;1.36;;;;;;;20.01;50.35;98770.64;;;;-45
2021/02/03 14:42:57;;;;;;;2.69;1.37;;;;;;;20.03;50.42;98757.17;;;;-60
2021/02/03 14:45:57;;;;;;;1.78;1.29;;;;;;;20.05;50.17;98755.09;;;;-52
2021/02/03 14:49:57;;;;;;;3.69;1.25;;;;;;;20.08;50.42;98709.41;;;;-54
2021/02/03 14:52:57;;;;;;;1.77;1.26;;;;;;;20.11;50.37;98733.65;;;;-55
2021/02/03 14:55:57;;;;;;;2.45;1.36;;;;;;;20.15;50.44;98779.84;;;;-59
2021/02/03 14:58:57;;;;;;;3.31;1.29;;;;;;;20.16;50.09;98812.81;;;;-56
2021/02/03 15:03:57;;;;;;;2.00;1.30;;;;;;;20.22;50.17;98786.11;;;;-51
2021/02/03 15:08:57;;;;;;;1.69;1.10;;;;;;;20.21;50.16;98757.89;;;;-49
2021/02/03 15:11:57;;;;;;;1.96;1.29;;;;;;;20.22;50.15;98748.75;;;;-52
2021/02/03 15:14:57;;;;;;;1.73;1.20;;;;;;;20.23;50.16;98745.97;;;;-53
2021/02/03 15:17:57;;;;;;;3.00;1.27;;;;;;;20.24;50.14;98761.82;;;;-58
2021/02/03 15:21:57;;;;;;;2.68;1.17;;;;;;;20.25;49.96;98783.16;;;;-56
2021/02/03 15:24:57;;;;;;;2.82;1.27;;;;;;;20.28;50.13;98776.91;;;;-57
2021/02/03 15:27:57;;;;;;;2.77;1.15;;;;;;;20.29;50.05;98787.71;;;;-54
2021/02/03 15:30:57;;;;;;;1.41;1.22;;;;;;;20.29;49.68;98769.66;;;;-51
2021/02/03 15:33:57;;;;;;;1.81;1.33;;;;;;;20.30;49.60;98771.77;;;;-52
2021/02/03 15:36:57;;;;;;;2.16;1.10;;;;;;;20.28;49.45;98761.56;;;;-52
2021/02/03 15:39:57;;;;;;;2.17;1.16;;;;;;;20.27;49.38;98767.25;;;;-51
2021/02/03 15:42:57;;;;;;;1.88;1.09;;;;;;;20.25;49.29;98777.31;;;;-51
2021/02/03 15:45:57;;;;;;;1.15;1.05;;;;;;;20.25;49.28;98776.33;;;;-52
2021/02/03 15:48:57;;;;;;;1.31;1.21;;;;;;;20.25;49.22;98775.68;;;;-51
2021/02/03 15:51:57;;;;;;;1.47;1.11;;;;;;;20.23;49.21;98784.84;;;;-52
2021/02/03 15:54:57;;;;;;;1.51;1.10;;;;;;;20.23;49.15;98785.56;;;;-58
2021/02/03 15:57:57;;;;;;;1.51;1.15;;;;;;;20.23;49.31;98785.81;;;;-51
2021/02/03 16:00:57;;;;;;;2.56;1.21;;;;;;;20.24;49.70;98790.99;;;;-51
2021/02/03 16:03:57;;;;;;;2.65;1.21;;;;;;;20.24;49.73;98760.66;;;;-50
2021/02/03 16:06:57;;;;;;;3.36;1.20;;;;;;;20.24;49.75;98766.10;;;;-51
2021/02/03 16:09:57;;;;;;;1.32;1.16;;;;;;;20.25;49.80;98761.44;;;;-54
2021/02/03 16:12:57;;;;;;;1.51;1.16;;;;;;;20.26;49.64;98751.27;;;;-51
2021/02/03 16:15:57;;;;;;;1.30;1.10;;;;;;;20.27;49.74;98750.16;;;;-52
2021/02/03 16:20:57;;;;;;;1.35;1.10;;;;;;;20.32;49.78;98746.17;;;;-51
2021/02/03 16:23:57;;;;;;;1.42;1.01;;;;;;;20.32;49.59;98749.89;;;;-54
2021/02/03 16:26:57;;;;;;;1.17;1.00;;;;;;;20.36;49.78;98753.29;;;;-50
2021/02/03 16:29:57;;;;;;;1.64;1.20;;;;;;;20.38;49.86;98754.38;;;;-50
2021/02/03 16:32:57;;;;;;;1.29;1.10;;;;;;;20.36;49.72;98761.66;;;;-50
2021/02/03 16:35:57;;;;;;;1.71;1.11;;;;;;;20.40;49.83;98769.30;;;;-52
2021/02/03 16:38:57;;;;;;;1.18;1.08;;;;;;;20.42;49.89;98766.09;;;;-63
2021/02/03 16:41:57;;;;;;;1.35;1.10;;;;;;;20.44;49.89;98762.62;;;;-51
2021/02/03 16:44:57;;;;;;;1.19;1.02;;;;;;;20.46;50.01;98767.20;;;;-51
2021/02/03 16:47:57;;;;;;;1.32;1.14;;;;;;;20.47;50.00;98751.33;;;;-51
2021/02/03 16:50:57;;;;;;;2.04;1.10;;;;;;;20.48;49.99;98754.06;;;;-51
2021/02/03 16:55:57;;;;;;;1.43;1.11;;;;;;;20.49;50.23;98751.16;;;;-54
2021/02/03 16:58:57;;;;;;;1.76;1.09;;;;;;;20.53;50.42;98750.03;;;;-52
2021/02/03 17:01:57;;;;;;;1.00;1.00;;;;;;;20.51;50.31;98744.63;;;;-51
2021/02/03 17:04:57;;;;;;;3.01;1.07;;;;;;;20.54;50.18;98746.99;;;;-54
2021/02/03 17:08:57;;;;;;;1.09;0.98;;;;;;;20.51;49.54;98728.44;;;;-58
2021/02/03 17:11:57;;;;;;;1.16;1.06;;;;;;;20.49;49.47;98737.35;;;;-52
2021/02/03 17:14:57;;;;;;;1.55;0.95;;;;;;;20.47;49.37;98745.28;;;;-51
2021/02/03 17:17:57;;;;;;;1.25;1.00;;;;;;;20.45;49.29;98746.47;;;;-53
2021/02/03 17:20:57;;;;;;;1.37;1.09;;;;;;;20.43;49.21;98759.94;;;;-56
2021/02/03 17:25:57;;;;;;;0.92;0.90;;;;;;;20.41;49.15;98760.91;;;;-52
2021/02/03 17:28:57;;;;;;;1.64;1.07;;;;;;;20.40;49.06;98764.10;;;;-52
2021/02/03 17:32:57;;;;;;;1.95;1.10;;;;;;;20.37;49.03;98760.98;;;;-54
2021/02/03 17:35:57;;;;;;;1.55;1.08;;;;;;;20.37;49.02;98753.00;;;;-53
2021/02/03 17:40:57;;;;;;;1.11;1.01;;;;;;;20.35;48.92;98755.52;;;;-54
2021/02/03 17:45:57;;;;;;;1.13;0.98;;;;;;;20.34;48.89;98758.72;;;;-55
2021/02/03 17:48:57;;;;;;;1.15;1.07;;;;;;;20.34;48.85;98755.16;;;;-55
2021/02/03 17:51:57;;;;;;;1.06;1.02;;;;;;;20.32;48.89;98753.31;;;;-56
2021/02/03 17:56:57;;;;;;;1.01;1.00;;;;;;;20.33;48.84;98763.05;;;;-55
2021/02/03 18:02:57;;;;;;;0.99;0.99;;;;;;;20.32;48.80;98763.00;;;;-54
2021/02/03 18:05:57;;;;;;;0.82;0.82;;;;;;;20.33;48.81;98757.19;;;;-51
2021/02/03 18:08:57;;;;;;;1.47;0.90;;;;;;;20.33;48.78;98767.84;;;;-53
2021/02/03 18:13:58;;;;;;;1.21;0.94;;;;;;;20.34;48.78;98781.52;;;;-54
2021/02/03 18:16:57;;;;;;;1.03;0.97;;;;;;;20.34;48.80;98792.33;;;;-51
2021/02/03 18:19:57;;;;;;;5.03;1.14;;;;;;;20.35;49.13;98797.66;;;;-57
2021/02/03 18:22:57;;;;;;;1.11;1.00;;;;;;;20.37;49.17;98800.30;;;;-51
2021/02/03 18:25:57;;;;;;;1.15;0.90;;;;;;;20.38;49.28;98799.94;;;;-51
2021/02/03 18:28:57;;;;;;;0.99;0.96;;;;;;;20.37;49.29;98799.86;;;;-51
2021/02/03 18:31:57;;;;;;;1.19;1.05;;;;;;;20.39;49.38;98807.25;;;;-56
2021/02/03 18:34:57;;;;;;;4.31;1.05;;;;;;;20.39;49.05;98812.20;;;;-56
2021/02/03 18:37:57;;;;;;;2.76;1.00;;;;;;;20.37;49.02;98812.23;;;;-60
2021/02/03 18:40:57;;;;;;;1.95;1.05;;;;;;;20.36;48.94;98822.61;;;;-54
2021/02/03 18:43:57;;;;;;;0.89;0.89;;;;;;;20.35;48.90;98831.27;;;;-55
2021/02/03 18:46:57;;;;;;;1.27;1.01;;;;;;;20.31;49.03;98843.45;;;;-57
2021/02/03 18:49:57;;;;;;;3.24;1.03;;;;;;;20.29;48.99;98850.83;;;;-53
2021/02/03 18:52:57;;;;;;;2.07;1.09;;;;;;;20.25;49.02;98857.52;;;;-51
2021/02/03 18:55:57;;;;;;;1.17;1.07;;;;;;;20.22;48.96;98862.55;;;;-61
2021/02/03 18:59:00;;;;;;;1.20;1.09;;;;;;;20.19;49.09;98869.60;;;;-60
2021/02/03 19:01:57;;;;;;;1.07;0.99;;;;;;;20.17;49.11;98875.99;;;;-57
2021/02/03 19:04:57;;;;;;;1.04;0.99;;;;;;;20.16;49.22;98880.08;;;;-57
2021/02/03 19:07:57;;;;;;;3.66;1.13;;;;;;;20.15;49.15;98882.85;;;;-52
2021/02/03 19:10:57;;;;;;;1.27;1.00;;;;;;;20.15;49.33;98885.88;;;;-52
2021/02/03 19:13:57;;;;;;;4.33;1.16;;;;;;;20.17;49.51;98895.50;;;;-58
2021/02/03 19:16:58;;;;;;;1.94;1.00;;;;;;;20.19;49.67;98902.45;;;;-61
2021/02/03 19:19:57;;;;;;;1.55;1.05;;;;;;;20.21;49.75;98901.37;;;;-53
2021/02/03 19:22:57;;;;;;;1.02;1.00;;;;;;;20.23;49.92;98906.68;;;;-51
2021/02/03 19:25:57;;;;;;;1.75;1.11;;;;;;;20.23;49.92;98909.19;;;;-56